sensor_id;sensor_type;location;lat;lon;timestamp;P1;durP1;ratioP1;P2;durP2;ratioP2
22949;SDS011;11641;51.018;4.474;2023-03-22T00:00:47;14.82;;;6.10;;
22949;SDS011;11641;51.018;4.474;2023-03-22T00:03:14;11.07;;;6.07;;
22949;SDS011;11641;51.018;4.474;2023-03-22T00:05:42;14.38;;;6.65;;
22949;SDS011;11641;51.018;4.474;2023-03-22T00:08:08;12.00;;;6.13;;
22949;SDS011;11641;51.018;4.474;2023-03-22T00:10:35;14.95;;;7.65;;
22949;SDS011;11641;51.018;4.474;2023-03-22T00:13:05;13.32;;;7.40;;
22949;SDS011;11641;51.018;4.474;2023-03-22T00:15:32;17.48;;;8.43;;
22949;SDS011;11641;51.018;4.474;2023-03-22T00:17:59;14.18;;;7.72;;
22949;SDS011;11641;51.018;4.474;2023-03-22T00:20:26;12.82;;;8.43;;
22949;SDS011;11641;51.018;4.474;2023-03-22T00:22:55;16.33;;;8.23;;
22949;SDS011;11641;51.018;4.474;2023-03-22T00:25:21;15.05;;;8.45;;
22949;SDS011;11641;51.018;4.474;2023-03-22T00:27:47;18.38;;;9.43;;
22949;SDS011;11641;51.018;4.474;2023-03-22T00:30:13;17.05;;;9.52;;
22949;SDS011;11641;51.018;4.474;2023-03-22T00:32:39;17.25;;;9.65;;
22949;SDS011;11641;51.018;4.474;2023-03-22T00:35:06;17.85;;;9.82;;
22949;SDS011;11641;51.018;4.474;2023-03-22T00:37:34;19.00;;;9.50;;
22949;SDS011;11641;51.018;4.474;2023-03-22T00:40:20;16.17;;;9.25;;
22949;SDS011;11641;51.018;4.474;2023-03-22T00:42:46;12.02;;;8.27;;
22949;SDS011;11641;51.018;4.474;2023-03-22T00:45:12;14.25;;;8.35;;
22949;SDS011;11641;51.018;4.474;2023-03-22T00:47:38;16.00;;;8.60;;
22949;SDS011;11641;51.018;4.474;2023-03-22T00:50:04;16.02;;;8.98;;
22949;SDS011;11641;51.018;4.474;2023-03-22T00:52:33;13.60;;;8.45;;
22949;SDS011;11641;51.018;4.474;2023-03-22T00:55:00;15.63;;;8.98;;
22949;SDS011;11641;51.018;4.474;2023-03-22T00:57:25;16.17;;;8.85;;
22949;SDS011;11641;51.018;4.474;2023-03-22T00:59:51;13.52;;;7.85;;
22949;SDS011;11641;51.018;4.474;2023-03-22T01:02:17;16.73;;;8.57;;
22949;SDS011;11641;51.018;4.474;2023-03-22T01:04:43;17.40;;;8.70;;
22949;SDS011;11641;51.018;4.474;2023-03-22T01:07:13;17.05;;;8.00;;
22949;SDS011;11641;51.018;4.474;2023-03-22T01:09:48;13.75;;;8.10;;
22949;SDS011;11641;51.018;4.474;2023-03-22T01:12:15;13.45;;;8.73;;
22949;SDS011;11641;51.018;4.474;2023-03-22T01:14:41;13.73;;;7.95;;
22949;SDS011;11641;51.018;4.474;2023-03-22T01:17:10;15.23;;;8.05;;
22949;SDS011;11641;51.018;4.474;2023-03-22T01:19:37;17.67;;;7.47;;
22949;SDS011;11641;51.018;4.474;2023-03-22T01:22:03;12.65;;;7.82;;
22949;SDS011;11641;51.018;4.474;2023-03-22T01:24:33;13.75;;;7.47;;
22949;SDS011;11641;51.018;4.474;2023-03-22T01:26:58;12.25;;;6.88;;
22949;SDS011;11641;51.018;4.474;2023-03-22T01:29:24;11.57;;;6.93;;
22949;SDS011;11641;51.018;4.474;2023-03-22T01:31:52;12.15;;;6.82;;
22949;SDS011;11641;51.018;4.474;2023-03-22T01:34:18;13.40;;;7.45;;
22949;SDS011;11641;51.018;4.474;2023-03-22T01:36:43;11.50;;;7.28;;
22949;SDS011;11641;51.018;4.474;2023-03-22T01:39:09;12.55;;;7.25;;
22949;SDS011;11641;51.018;4.474;2023-03-22T01:41:35;12.15;;;6.57;;
22949;SDS011;11641;51.018;4.474;2023-03-22T01:44:05;15.15;;;6.88;;
22949;SDS011;11641;51.018;4.474;2023-03-22T01:46:39;13.10;;;7.05;;
22949;SDS011;11641;51.018;4.474;2023-03-22T01:49:09;12.15;;;6.18;;
22949;SDS011;11641;51.018;4.474;2023-03-22T01:51:40;10.75;;;5.90;;
22949;SDS011;11641;51.018;4.474;2023-03-22T01:54:07;13.02;;;6.75;;
22949;SDS011;11641;51.018;4.474;2023-03-22T01:56:38;13.68;;;6.32;;
22949;SDS011;11641;51.018;4.474;2023-03-22T01:59:05;12.68;;;6.00;;
22949;SDS011;11641;51.018;4.474;2023-03-22T02:01:35;13.70;;;6.20;;
22949;SDS011;11641;51.018;4.474;2023-03-22T02:04:11;11.82;;;6.10;;
22949;SDS011;11641;51.018;4.474;2023-03-22T02:06:40;13.85;;;6.10;;
22949;SDS011;11641;51.018;4.474;2023-03-22T02:09:07;11.38;;;6.05;;
22949;SDS011;11641;51.018;4.474;2023-03-22T02:11:41;8.48;;;5.35;;
22949;SDS011;11641;51.018;4.474;2023-03-22T02:33:39;11.60;;;4.55;;
22949;SDS011;11641;51.018;4.474;2023-03-22T02:36:33;11.93;;;4.40;;
22949;SDS011;11641;51.018;4.474;2023-03-22T02:44:29;12.90;;;5.18;;
22949;SDS011;11641;51.018;4.474;2023-03-22T02:49:57;14.50;;;5.38;;
22949;SDS011;11641;51.018;4.474;2023-03-22T02:52:38;11.65;;;4.78;;
22949;SDS011;11641;51.018;4.474;2023-03-22T02:55:36;10.82;;;4.70;;
22949;SDS011;11641;51.018;4.474;2023-03-22T03:00:40;8.77;;;3.78;;
22949;SDS011;11641;51.018;4.474;2023-03-22T03:03:07;12.63;;;4.32;;
22949;SDS011;11641;51.018;4.474;2023-03-22T03:05:43;10.35;;;4.00;;
22949;SDS011;11641;51.018;4.474;2023-03-22T03:08:12;7.88;;;4.05;;
22949;SDS011;11641;51.018;4.474;2023-03-22T03:10:41;15.65;;;4.13;;
22949;SDS011;11641;51.018;4.474;2023-03-22T03:13:19;8.65;;;3.70;;
22949;SDS011;11641;51.018;4.474;2023-03-22T03:15:48;8.57;;;3.78;;
22949;SDS011;11641;51.018;4.474;2023-03-22T03:20:55;11.48;;;4.18;;
22949;SDS011;11641;51.018;4.474;2023-03-22T03:34:56;12.13;;;4.40;;
22949;SDS011;11641;51.018;4.474;2023-03-22T03:37:33;16.27;;;4.25;;
22949;SDS011;11641;51.018;4.474;2023-03-22T03:40:09;11.15;;;3.88;;
22949;SDS011;11641;51.018;4.474;2023-03-22T03:42:43;9.43;;;3.45;;
22949;SDS011;11641;51.018;4.474;2023-03-22T03:45:14;12.15;;;3.67;;
22949;SDS011;11641;51.018;4.474;2023-03-22T03:47:46;11.32;;;3.83;;
22949;SDS011;11641;51.018;4.474;2023-03-22T03:50:19;9.93;;;3.73;;
22949;SDS011;11641;51.018;4.474;2023-03-22T03:52:45;12.25;;;3.38;;
22949;SDS011;11641;51.018;4.474;2023-03-22T03:55:14;13.82;;;3.60;;
22949;SDS011;11641;51.018;4.474;2023-03-22T03:57:40;5.53;;;3.25;;
22949;SDS011;11641;51.018;4.474;2023-03-22T04:00:05;8.50;;;3.20;;
22949;SDS011;11641;51.018;4.474;2023-03-22T04:02:31;11.75;;;3.55;;
22949;SDS011;11641;51.018;4.474;2023-03-22T04:04:57;12.07;;;3.38;;
22949;SDS011;11641;51.018;4.474;2023-03-22T04:07:23;9.13;;;3.40;;
22949;SDS011;11641;51.018;4.474;2023-03-22T04:09:48;11.32;;;3.30;;
22949;SDS011;11641;51.018;4.474;2023-03-22T04:12:14;7.38;;;3.15;;
22949;SDS011;11641;51.018;4.474;2023-03-22T04:14:40;9.55;;;2.90;;
22949;SDS011;11641;51.018;4.474;2023-03-22T04:17:05;8.75;;;2.53;;
22949;SDS011;11641;51.018;4.474;2023-03-22T04:19:33;14.63;;;2.40;;
22949;SDS011;11641;51.018;4.474;2023-03-22T04:22:02;8.52;;;2.00;;
22949;SDS011;11641;51.018;4.474;2023-03-22T04:24:27;10.07;;;2.60;;
22949;SDS011;11641;51.018;4.474;2023-03-22T04:26:53;8.45;;;2.22;;
22949;SDS011;11641;51.018;4.474;2023-03-22T04:29:19;11.48;;;2.22;;
22949;SDS011;11641;51.018;4.474;2023-03-22T04:31:46;7.95;;;2.25;;
22949;SDS011;11641;51.018;4.474;2023-03-22T04:34:12;12.38;;;1.70;;
22949;SDS011;11641;51.018;4.474;2023-03-22T04:36:38;9.48;;;1.95;;
22949;SDS011;11641;51.018;4.474;2023-03-22T04:39:09;10.70;;;2.15;;
22949;SDS011;11641;51.018;4.474;2023-03-22T04:41:36;10.60;;;2.30;;
22949;SDS011;11641;51.018;4.474;2023-03-22T04:44:05;7.97;;;1.73;;
22949;SDS011;11641;51.018;4.474;2023-03-22T04:46:32;8.13;;;2.38;;
22949;SDS011;11641;51.018;4.474;2023-03-22T04:48:59;11.25;;;1.92;;
22949;SDS011;11641;51.018;4.474;2023-03-22T04:51:26;7.18;;;1.88;;
22949;SDS011;11641;51.018;4.474;2023-03-22T04:53:52;11.82;;;1.90;;
22949;SDS011;11641;51.018;4.474;2023-03-22T04:56:18;6.47;;;1.98;;
22949;SDS011;11641;51.018;4.474;2023-03-22T04:58:45;11.55;;;3.22;;
22949;SDS011;11641;51.018;4.474;2023-03-22T05:01:11;10.00;;;1.83;;
22949;SDS011;11641;51.018;4.474;2023-03-22T05:03:40;11.07;;;1.92;;
22949;SDS011;11641;51.018;4.474;2023-03-22T05:06:10;9.73;;;2.13;;
22949;SDS011;11641;51.018;4.474;2023-03-22T05:08:35;8.45;;;1.80;;
22949;SDS011;11641;51.018;4.474;2023-03-22T05:11:06;12.02;;;2.60;;
22949;SDS011;11641;51.018;4.474;2023-03-22T05:13:36;9.40;;;2.15;;
22949;SDS011;11641;51.018;4.474;2023-03-22T05:16:03;9.18;;;2.38;;
22949;SDS011;11641;51.018;4.474;2023-03-22T05:18:29;8.15;;;2.05;;
22949;SDS011;11641;51.018;4.474;2023-03-22T05:20:59;9.50;;;2.17;;
22949;SDS011;11641;51.018;4.474;2023-03-22T05:23:29;10.18;;;2.70;;
22949;SDS011;11641;51.018;4.474;2023-03-22T05:25:55;11.05;;;3.83;;
22949;SDS011;11641;51.018;4.474;2023-03-22T05:28:25;11.43;;;2.45;;
22949;SDS011;11641;51.018;4.474;2023-03-22T05:30:55;14.75;;;3.28;;
22949;SDS011;11641;51.018;4.474;2023-03-22T05:33:21;11.57;;;2.85;;
22949;SDS011;11641;51.018;4.474;2023-03-22T05:35:47;10.40;;;2.90;;
22949;SDS011;11641;51.018;4.474;2023-03-22T05:38:15;8.75;;;2.65;;
22949;SDS011;11641;51.018;4.474;2023-03-22T05:40:42;9.63;;;3.13;;
22949;SDS011;11641;51.018;4.474;2023-03-22T05:43:08;7.88;;;2.25;;
22949;SDS011;11641;51.018;4.474;2023-03-22T05:45:34;11.00;;;3.38;;
22949;SDS011;11641;51.018;4.474;2023-03-22T05:48:01;11.13;;;2.72;;
22949;SDS011;11641;51.018;4.474;2023-03-22T05:50:27;12.85;;;2.92;;
22949;SDS011;11641;51.018;4.474;2023-03-22T05:52:52;12.93;;;2.92;;
22949;SDS011;11641;51.018;4.474;2023-03-22T05:55:18;10.25;;;2.50;;
22949;SDS011;11641;51.018;4.474;2023-03-22T05:57:45;11.00;;;2.63;;
22949;SDS011;11641;51.018;4.474;2023-03-22T06:00:13;11.13;;;2.70;;
22949;SDS011;11641;51.018;4.474;2023-03-22T06:02:43;10.48;;;2.70;;
22949;SDS011;11641;51.018;4.474;2023-03-22T06:05:10;9.15;;;2.53;;
22949;SDS011;11641;51.018;4.474;2023-03-22T06:07:37;10.60;;;2.80;;
22949;SDS011;11641;51.018;4.474;2023-03-22T06:10:04;10.15;;;2.33;;
22949;SDS011;11641;51.018;4.474;2023-03-22T06:12:31;11.13;;;2.03;;
22949;SDS011;11641;51.018;4.474;2023-03-22T06:14:59;11.23;;;2.17;;
22949;SDS011;11641;51.018;4.474;2023-03-22T06:17:25;8.02;;;2.33;;
22949;SDS011;11641;51.018;4.474;2023-03-22T06:19:51;9.40;;;2.20;;
22949;SDS011;11641;51.018;4.474;2023-03-22T06:22:18;16.60;;;2.47;;
22949;SDS011;11641;51.018;4.474;2023-03-22T06:24:45;7.70;;;2.20;;
22949;SDS011;11641;51.018;4.474;2023-03-22T06:27:13;14.18;;;2.22;;
22949;SDS011;11641;51.018;4.474;2023-03-22T06:29:40;11.05;;;2.20;;
22949;SDS011;11641;51.018;4.474;2023-03-22T06:32:06;8.75;;;2.92;;
22949;SDS011;11641;51.018;4.474;2023-03-22T06:34:31;8.63;;;1.98;;
22949;SDS011;11641;51.018;4.474;2023-03-22T06:36:57;12.65;;;2.63;;
22949;SDS011;11641;51.018;4.474;2023-03-22T06:39:23;9.65;;;1.85;;
22949;SDS011;11641;51.018;4.474;2023-03-22T06:41:49;10.40;;;1.75;;
22949;SDS011;11641;51.018;4.474;2023-03-22T06:44:15;8.25;;;1.10;;
22949;SDS011;11641;51.018;4.474;2023-03-22T06:46:42;13.18;;;1.73;;
22949;SDS011;11641;51.018;4.474;2023-03-22T06:49:07;12.23;;;1.70;;
22949;SDS011;11641;51.018;4.474;2023-03-22T06:51:33;12.45;;;1.92;;
22949;SDS011;11641;51.018;4.474;2023-03-22T06:53:59;9.95;;;2.10;;
22949;SDS011;11641;51.018;4.474;2023-03-22T06:56:25;13.30;;;1.92;;
22949;SDS011;11641;51.018;4.474;2023-03-22T06:58:51;38.05;;;3.55;;
22949;SDS011;11641;51.018;4.474;2023-03-22T07:01:18;10.20;;;1.77;;
22949;SDS011;11641;51.018;4.474;2023-03-22T07:03:47;14.02;;;2.25;;
22949;SDS011;11641;51.018;4.474;2023-03-22T07:06:12;14.43;;;2.10;;
22949;SDS011;11641;51.018;4.474;2023-03-22T07:08:38;9.02;;;2.05;;
22949;SDS011;11641;51.018;4.474;2023-03-22T07:11:06;9.73;;;2.03;;
22949;SDS011;11641;51.018;4.474;2023-03-22T07:13:32;11.73;;;2.25;;
22949;SDS011;11641;51.018;4.474;2023-03-22T07:15:58;11.82;;;2.22;;
22949;SDS011;11641;51.018;4.474;2023-03-22T07:18:28;12.85;;;2.28;;
22949;SDS011;11641;51.018;4.474;2023-03-22T07:20:54;11.50;;;2.00;;
22949;SDS011;11641;51.018;4.474;2023-03-22T07:23:20;12.52;;;2.55;;
22949;SDS011;11641;51.018;4.474;2023-03-22T07:25:46;12.10;;;2.40;;
22949;SDS011;11641;51.018;4.474;2023-03-22T07:28:12;11.73;;;2.50;;
22949;SDS011;11641;51.018;4.474;2023-03-22T07:30:38;14.23;;;2.63;;
22949;SDS011;11641;51.018;4.474;2023-03-22T07:33:04;23.48;;;3.25;;
22949;SDS011;11641;51.018;4.474;2023-03-22T07:35:31;7.70;;;1.80;;
22949;SDS011;11641;51.018;4.474;2023-03-22T07:37:59;17.40;;;2.63;;
22949;SDS011;11641;51.018;4.474;2023-03-22T07:40:27;9.05;;;2.20;;
22949;SDS011;11641;51.018;4.474;2023-03-22T07:42:53;9.05;;;1.80;;
22949;SDS011;11641;51.018;4.474;2023-03-22T07:45:19;13.60;;;2.38;;
22949;SDS011;11641;51.018;4.474;2023-03-22T07:47:47;10.55;;;1.77;;
22949;SDS011;11641;51.018;4.474;2023-03-22T07:50:15;8.20;;;1.70;;
22949;SDS011;11641;51.018;4.474;2023-03-22T07:52:42;8.05;;;1.75;;
22949;SDS011;11641;51.018;4.474;2023-03-22T07:55:10;11.70;;;1.88;;
22949;SDS011;11641;51.018;4.474;2023-03-22T07:57:39;8.55;;;2.00;;
22949;SDS011;11641;51.018;4.474;2023-03-22T08:00:05;8.10;;;1.60;;
22949;SDS011;11641;51.018;4.474;2023-03-22T08:02:33;7.97;;;2.20;;
22949;SDS011;11641;51.018;4.474;2023-03-22T08:05:01;5.57;;;1.88;;
22949;SDS011;11641;51.018;4.474;2023-03-22T08:07:27;9.27;;;1.98;;
22949;SDS011;11641;51.018;4.474;2023-03-22T08:09:55;10.15;;;2.00;;
22949;SDS011;11641;51.018;4.474;2023-03-22T08:12:21;12.27;;;2.38;;
22949;SDS011;11641;51.018;4.474;2023-03-22T08:14:47;7.55;;;1.65;;
22949;SDS011;11641;51.018;4.474;2023-03-22T08:17:15;10.15;;;2.38;;
22949;SDS011;11641;51.018;4.474;2023-03-22T08:19:42;14.63;;;3.05;;
22949;SDS011;11641;51.018;4.474;2023-03-22T08:22:08;12.43;;;2.08;;
22949;SDS011;11641;51.018;4.474;2023-03-22T08:24:35;9.82;;;2.33;;
22949;SDS011;11641;51.018;4.474;2023-03-22T08:27:01;14.63;;;2.65;;
22949;SDS011;11641;51.018;4.474;2023-03-22T08:29:27;9.25;;;2.38;;
22949;SDS011;11641;51.018;4.474;2023-03-22T08:31:53;13.02;;;2.83;;
22949;SDS011;11641;51.018;4.474;2023-03-22T08:34:20;16.58;;;2.55;;
22949;SDS011;11641;51.018;4.474;2023-03-22T08:36:45;8.00;;;1.83;;
22949;SDS011;11641;51.018;4.474;2023-03-22T08:39:11;9.77;;;1.92;;
22949;SDS011;11641;51.018;4.474;2023-03-22T08:41:42;41.33;;;4.22;;
22949;SDS011;11641;51.018;4.474;2023-03-22T08:44:10;13.30;;;2.08;;
22949;SDS011;11641;51.018;4.474;2023-03-22T08:46:35;11.75;;;2.15;;
22949;SDS011;11641;51.018;4.474;2023-03-22T08:49:03;7.55;;;1.85;;
22949;SDS011;11641;51.018;4.474;2023-03-22T08:51:34;16.40;;;2.45;;
22949;SDS011;11641;51.018;4.474;2023-03-22T08:54:00;8.80;;;2.03;;
22949;SDS011;11641;51.018;4.474;2023-03-22T08:56:28;8.75;;;1.63;;
22949;SDS011;11641;51.018;4.474;2023-03-22T08:59:01;14.68;;;2.15;;
22949;SDS011;11641;51.018;4.474;2023-03-22T09:01:30;8.68;;;1.98;;
22949;SDS011;11641;51.018;4.474;2023-03-22T09:03:56;11.07;;;2.05;;
22949;SDS011;11641;51.018;4.474;2023-03-22T09:06:22;9.13;;;2.20;;
22949;SDS011;11641;51.018;4.474;2023-03-22T09:08:52;12.07;;;1.77;;
22949;SDS011;11641;51.018;4.474;2023-03-22T09:11:18;8.90;;;1.80;;
22949;SDS011;11641;51.018;4.474;2023-03-22T09:13:45;12.27;;;1.77;;
22949;SDS011;11641;51.018;4.474;2023-03-22T09:16:11;8.65;;;1.70;;
22949;SDS011;11641;51.018;4.474;2023-03-22T09:18:37;9.23;;;2.30;;
22949;SDS011;11641;51.018;4.474;2023-03-22T09:21:04;16.17;;;2.33;;
22949;SDS011;11641;51.018;4.474;2023-03-22T09:23:31;10.20;;;2.42;;
22949;SDS011;11641;51.018;4.474;2023-03-22T09:26:01;10.85;;;2.38;;
22949;SDS011;11641;51.018;4.474;2023-03-22T09:28:28;12.63;;;2.47;;
22949;SDS011;11641;51.018;4.474;2023-03-22T09:30:58;6.10;;;1.52;;
22949;SDS011;11641;51.018;4.474;2023-03-22T09:33:27;11.23;;;2.30;;
22949;SDS011;11641;51.018;4.474;2023-03-22T09:35:55;12.70;;;1.95;;
22949;SDS011;11641;51.018;4.474;2023-03-22T09:38:22;13.10;;;2.05;;
22949;SDS011;11641;51.018;4.474;2023-03-22T09:40:52;16.00;;;2.35;;
22949;SDS011;11641;51.018;4.474;2023-03-22T09:43:39;7.97;;;2.23;;
22949;SDS011;11641;51.018;4.474;2023-03-22T09:46:11;9.05;;;2.05;;
22949;SDS011;11641;51.018;4.474;2023-03-22T09:48:41;9.70;;;1.50;;
22949;SDS011;11641;51.018;4.474;2023-03-22T09:51:16;10.02;;;1.85;;
22949;SDS011;11641;51.018;4.474;2023-03-22T10:04:12;3.15;;;1.10;;
22949;SDS011;11641;51.018;4.474;2023-03-22T10:06:52;9.88;;;1.67;;
22949;SDS011;11641;51.018;4.474;2023-03-22T10:09:33;6.75;;;1.20;;
22949;SDS011;11641;51.018;4.474;2023-03-22T10:12:28;5.05;;;0.90;;
22949;SDS011;11641;51.018;4.474;2023-03-22T10:17:38;4.57;;;1.00;;
22949;SDS011;11641;51.018;4.474;2023-03-22T10:22:45;6.93;;;1.48;;
22949;SDS011;11641;51.018;4.474;2023-03-22T10:25:16;6.05;;;1.15;;
22949;SDS011;11641;51.018;4.474;2023-03-22T10:27:46;8.30;;;1.05;;
22949;SDS011;11641;51.018;4.474;2023-03-22T10:30:23;5.07;;;1.20;;
22949;SDS011;11641;51.018;4.474;2023-03-22T10:32:54;5.95;;;1.20;;
22949;SDS011;11641;51.018;4.474;2023-03-22T10:35:24;9.97;;;1.00;;
22949;SDS011;11641;51.018;4.474;2023-03-22T10:37:56;6.40;;;1.90;;
22949;SDS011;11641;51.018;4.474;2023-03-22T10:40:29;5.10;;;1.05;;
22949;SDS011;11641;51.018;4.474;2023-03-22T10:45:27;10.07;;;1.27;;
22949;SDS011;11641;51.018;4.474;2023-03-22T10:48:31;2.63;;;0.75;;
22949;SDS011;11641;51.018;4.474;2023-03-22T10:50:49;8.10;;;1.00;;
22949;SDS011;11641;51.018;4.474;2023-03-22T10:53:23;4.55;;;0.93;;
22949;SDS011;11641;51.018;4.474;2023-03-22T10:55:51;7.28;;;1.10;;
22949;SDS011;11641;51.018;4.474;2023-03-22T10:58:18;6.22;;;1.55;;
22949;SDS011;11641;51.018;4.474;2023-03-22T11:00:50;6.28;;;1.35;;
22949;SDS011;11641;51.018;4.474;2023-03-22T11:08:58;8.95;;;1.95;;
22949;SDS011;11641;51.018;4.474;2023-03-22T11:14:06;10.40;;;1.95;;
22949;SDS011;11641;51.018;4.474;2023-03-22T11:17:00;6.32;;;2.63;;
22949;SDS011;11641;51.018;4.474;2023-03-22T11:19:39;4.57;;;1.92;;
22949;SDS011;11641;51.018;4.474;2023-03-22T11:22:24;7.28;;;2.15;;
22949;SDS011;11641;51.018;4.474;2023-03-22T11:27:49;10.43;;;2.33;;
22949;SDS011;11641;51.018;4.474;2023-03-22T11:30:38;13.02;;;2.60;;
22949;SDS011;11641;51.018;4.474;2023-03-22T11:35:36;6.68;;;1.95;;
22949;SDS011;11641;51.018;4.474;2023-03-22T11:38:02;8.68;;;2.15;;
22949;SDS011;11641;51.018;4.474;2023-03-22T11:40:29;9.32;;;2.33;;
22949;SDS011;11641;51.018;4.474;2023-03-22T11:43:11;8.65;;;1.90;;
22949;SDS011;11641;51.018;4.474;2023-03-22T11:45:55;7.07;;;2.00;;
22949;SDS011;11641;51.018;4.474;2023-03-22T11:48:26;10.48;;;2.53;;
22949;SDS011;11641;51.018;4.474;2023-03-22T11:50:54;12.27;;;2.10;;
22949;SDS011;11641;51.018;4.474;2023-03-22T11:53:33;8.40;;;2.47;;
22949;SDS011;11641;51.018;4.474;2023-03-22T11:56:03;7.40;;;2.13;;
22949;SDS011;11641;51.018;4.474;2023-03-22T12:01:06;12.20;;;3.42;;
22949;SDS011;11641;51.018;4.474;2023-03-22T12:03:39;13.32;;;3.35;;
22949;SDS011;11641;51.018;4.474;2023-03-22T12:06:19;10.77;;;3.78;;
22949;SDS011;11641;51.018;4.474;2023-03-22T12:08:47;12.25;;;3.55;;
22949;SDS011;11641;51.018;4.474;2023-03-22T12:11:19;9.57;;;3.58;;
22949;SDS011;11641;51.018;4.474;2023-03-22T12:14:12;12.90;;;4.03;;
22949;SDS011;11641;51.018;4.474;2023-03-22T12:17:09;10.18;;;3.88;;
22949;SDS011;11641;51.018;4.474;2023-03-22T12:19:44;11.23;;;3.35;;
22949;SDS011;11641;51.018;4.474;2023-03-22T12:22:27;13.68;;;3.85;;
22949;SDS011;11641;51.018;4.474;2023-03-22T12:24:56;8.85;;;3.15;;
22949;SDS011;11641;51.018;4.474;2023-03-22T12:27:29;10.20;;;3.33;;
22949;SDS011;11641;51.018;4.474;2023-03-22T12:32:43;9.73;;;3.30;;
22949;SDS011;11641;51.018;4.474;2023-03-22T12:35:20;14.80;;;4.10;;
22949;SDS011;11641;51.018;4.474;2023-03-22T12:37:56;12.55;;;3.63;;
22949;SDS011;11641;51.018;4.474;2023-03-22T12:40:27;10.52;;;3.58;;
22949;SDS011;11641;51.018;4.474;2023-03-22T12:45:30;9.73;;;3.85;;
22949;SDS011;11641;51.018;4.474;2023-03-22T12:48:10;12.50;;;3.80;;
22949;SDS011;11641;51.018;4.474;2023-03-22T12:50:40;11.95;;;3.88;;
22949;SDS011;11641;51.018;4.474;2023-03-22T12:53:14;8.82;;;2.97;;
22949;SDS011;11641;51.018;4.474;2023-03-22T12:55:41;9.85;;;3.63;;
22949;SDS011;11641;51.018;4.474;2023-03-22T12:58:08;12.15;;;3.47;;
22949;SDS011;11641;51.018;4.474;2023-03-22T13:00:37;12.18;;;4.20;;
22949;SDS011;11641;51.018;4.474;2023-03-22T13:05:47;7.82;;;3.63;;
22949;SDS011;11641;51.018;4.474;2023-03-22T13:08:20;12.70;;;4.10;;
22949;SDS011;11641;51.018;4.474;2023-03-22T13:10:48;9.30;;;4.10;;
22949;SDS011;11641;51.018;4.474;2023-03-22T13:15:59;14.75;;;5.38;;
22949;SDS011;11641;51.018;4.474;2023-03-22T13:21:11;12.27;;;5.13;;
22949;SDS011;11641;51.018;4.474;2023-03-22T13:24:20;11.10;;;5.20;;
22949;SDS011;11641;51.018;4.474;2023-03-22T13:29:10;10.57;;;4.07;;
22949;SDS011;11641;51.018;4.474;2023-03-22T13:32:00;8.45;;;4.60;;
22949;SDS011;11641;51.018;4.474;2023-03-22T13:37:02;11.77;;;5.22;;
22949;SDS011;11641;51.018;4.474;2023-03-22T13:39:52;10.65;;;5.20;;
22949;SDS011;11641;51.018;4.474;2023-03-22T13:42:19;10.68;;;5.85;;
22949;SDS011;11641;51.018;4.474;2023-03-22T13:44:56;12.70;;;6.05;;
22949;SDS011;11641;51.018;4.474;2023-03-22T13:50:05;10.02;;;5.55;;
22949;SDS011;11641;51.018;4.474;2023-03-22T13:52:35;17.00;;;6.13;;
22949;SDS011;11641;51.018;4.474;2023-03-22T13:58:09;10.75;;;5.88;;
22949;SDS011;11641;51.018;4.474;2023-03-22T14:00:37;14.20;;;5.63;;
22949;SDS011;11641;51.018;4.474;2023-03-22T14:03:12;12.18;;;6.03;;
22949;SDS011;11641;51.018;4.474;2023-03-22T14:05:41;15.55;;;6.05;;
22949;SDS011;11641;51.018;4.474;2023-03-22T14:08:16;15.05;;;6.03;;
22949;SDS011;11641;51.018;4.474;2023-03-22T14:11:10;12.95;;;6.00;;
22949;SDS011;11641;51.018;4.474;2023-03-22T14:13:48;11.25;;;5.45;;
22949;SDS011;11641;51.018;4.474;2023-03-22T14:19:01;12.75;;;6.05;;
22949;SDS011;11641;51.018;4.474;2023-03-22T14:21:36;11.77;;;6.38;;
22949;SDS011;11641;51.018;4.474;2023-03-22T14:24:03;13.40;;;6.07;;
22949;SDS011;11641;51.018;4.474;2023-03-22T14:26:37;15.38;;;6.78;;
22949;SDS011;11641;51.018;4.474;2023-03-22T14:29:12;11.48;;;6.90;;
22949;SDS011;11641;51.018;4.474;2023-03-22T14:31:41;15.93;;;6.30;;
22949;SDS011;11641;51.018;4.474;2023-03-22T14:34:10;16.35;;;6.60;;
22949;SDS011;11641;51.018;4.474;2023-03-22T14:36:41;9.95;;;6.10;;
22949;SDS011;11641;51.018;4.474;2023-03-22T14:39:19;9.40;;;5.37;;
22949;SDS011;11641;51.018;4.474;2023-03-22T14:42:00;12.27;;;5.97;;
22949;SDS011;11641;51.018;4.474;2023-03-22T14:44:39;14.60;;;5.03;;
22949;SDS011;11641;51.018;4.474;2023-03-22T14:47:16;8.88;;;5.20;;
22949;SDS011;11641;51.018;4.474;2023-03-22T14:49:45;11.18;;;4.57;;
22949;SDS011;11641;51.018;4.474;2023-03-22T14:52:19;10.52;;;5.60;;
22949;SDS011;11641;51.018;4.474;2023-03-22T14:54:54;8.77;;;4.05;;
22949;SDS011;11641;51.018;4.474;2023-03-22T14:57:24;12.30;;;4.70;;
22949;SDS011;11641;51.018;4.474;2023-03-22T14:59:57;12.23;;;4.57;;
22949;SDS011;11641;51.018;4.474;2023-03-22T15:02:32;9.45;;;4.20;;
22949;SDS011;11641;51.018;4.474;2023-03-22T15:05:06;8.90;;;4.20;;
22949;SDS011;11641;51.018;4.474;2023-03-22T15:10:28;12.27;;;4.88;;
22949;SDS011;11641;51.018;4.474;2023-03-22T15:12:55;10.50;;;4.88;;
22949;SDS011;11641;51.018;4.474;2023-03-22T15:15:23;10.88;;;4.65;;
22949;SDS011;11641;51.018;4.474;2023-03-22T15:17:56;11.88;;;4.78;;
22949;SDS011;11641;51.018;4.474;2023-03-22T15:20:24;7.20;;;4.50;;
22949;SDS011;11641;51.018;4.474;2023-03-22T15:22:55;9.50;;;4.80;;
22949;SDS011;11641;51.018;4.474;2023-03-22T15:25:29;13.00;;;4.78;;
22949;SDS011;11641;51.018;4.474;2023-03-22T15:27:59;12.23;;;4.90;;
22949;SDS011;11641;51.018;4.474;2023-03-22T15:30:26;8.18;;;4.15;;
22949;SDS011;11641;51.018;4.474;2023-03-22T15:32:53;12.23;;;4.53;;
22949;SDS011;11641;51.018;4.474;2023-03-22T15:35:28;10.40;;;4.90;;
22949;SDS011;11641;51.018;4.474;2023-03-22T15:37:55;9.63;;;4.68;;
22949;SDS011;11641;51.018;4.474;2023-03-22T15:40:39;9.35;;;4.60;;
22949;SDS011;11641;51.018;4.474;2023-03-22T15:43:08;12.77;;;5.15;;
22949;SDS011;11641;51.018;4.474;2023-03-22T15:45:42;11.00;;;4.55;;
22949;SDS011;11641;51.018;4.474;2023-03-22T15:48:26;10.27;;;4.85;;
22949;SDS011;11641;51.018;4.474;2023-03-22T15:50:53;8.95;;;4.47;;
22949;SDS011;11641;51.018;4.474;2023-03-22T15:53:29;9.43;;;4.55;;
22949;SDS011;11641;51.018;4.474;2023-03-22T15:55:56;9.85;;;5.20;;
22949;SDS011;11641;51.018;4.474;2023-03-22T15:58:29;10.93;;;5.00;;
22949;SDS011;11641;51.018;4.474;2023-03-22T16:03:59;10.05;;;4.70;;
22949;SDS011;11641;51.018;4.474;2023-03-22T16:06:36;13.20;;;5.60;;
22949;SDS011;11641;51.018;4.474;2023-03-22T16:09:02;12.23;;;5.93;;
22949;SDS011;11641;51.018;4.474;2023-03-22T16:11:28;11.70;;;5.18;;
22949;SDS011;11641;51.018;4.474;2023-03-22T16:13:54;13.35;;;5.68;;
22949;SDS011;11641;51.018;4.474;2023-03-22T16:16:22;11.43;;;5.38;;
22949;SDS011;11641;51.018;4.474;2023-03-22T16:18:52;13.20;;;5.75;;
22949;SDS011;11641;51.018;4.474;2023-03-22T16:21:18;12.63;;;5.38;;
22949;SDS011;11641;51.018;4.474;2023-03-22T16:23:50;19.48;;;6.22;;
22949;SDS011;11641;51.018;4.474;2023-03-22T16:26:16;13.20;;;6.78;;
22949;SDS011;11641;51.018;4.474;2023-03-22T16:28:42;10.60;;;5.43;;
22949;SDS011;11641;51.018;4.474;2023-03-22T16:31:12;13.93;;;5.82;;
22949;SDS011;11641;51.018;4.474;2023-03-22T16:33:40;12.00;;;5.75;;
22949;SDS011;11641;51.018;4.474;2023-03-22T16:36:12;13.13;;;5.43;;
22949;SDS011;11641;51.018;4.474;2023-03-22T16:38:40;12.60;;;5.35;;
22949;SDS011;11641;51.018;4.474;2023-03-22T16:41:07;16.48;;;5.68;;
22949;SDS011;11641;51.018;4.474;2023-03-22T16:43:42;14.05;;;5.65;;
22949;SDS011;11641;51.018;4.474;2023-03-22T16:46:10;9.98;;;4.60;;